sensor_id;sensor_type;location;lat;lon;timestamp;temperature;humidity
45785;DHT22;31489;51.404;5.474;2023-08-07T00:00:50;16.90;84.70
45785;DHT22;31489;51.404;5.474;2023-08-07T00:03:16;16.90;84.50
45785;DHT22;31489;51.404;5.474;2023-08-07T00:05:50;16.90;84.40
45785;DHT22;31489;51.404;5.474;2023-08-07T00:08:17;16.90;83.90
45785;DHT22;31489;51.404;5.474;2023-08-07T00:10:43;16.90;84.10
45785;DHT22;31489;51.404;5.474;2023-08-07T00:13:09;16.90;84.10
45785;DHT22;31489;51.404;5.474;2023-08-07T00:15:37;17.00;84.00
45785;DHT22;31489;51.404;5.474;2023-08-07T00:18:03;16.90;83.50
45785;DHT22;31489;51.404;5.474;2023-08-07T00:20:29;17.00;83.50
45785;DHT22;31489;51.404;5.474;2023-08-07T00:22:54;17.00;83.40
45785;DHT22;31489;51.404;5.474;2023-08-07T00:25:23;16.90;83.30
45785;DHT22;31489;51.404;5.474;2023-08-07T00:27:49;16.90;83.20
45785;DHT22;31489;51.404;5.474;2023-08-07T00:30:14;16.90;83.00
45785;DHT22;31489;51.404;5.474;2023-08-07T00:32:40;17.00;83.10
45785;DHT22;31489;51.404;5.474;2023-08-07T00:35:06;17.00;82.90
45785;DHT22;31489;51.404;5.474;2023-08-07T00:37:33;17.00;83.00
45785;DHT22;31489;51.404;5.474;2023-08-07T00:39:59;17.00;83.00
45785;DHT22;31489;51.404;5.474;2023-08-07T00:42:25;17.00;83.00
45785;DHT22;31489;51.404;5.474;2023-08-07T00:44:50;17.00;83.00
45785;DHT22;31489;51.404;5.474;2023-08-07T00:47:16;17.00;82.90
45785;DHT22;31489;51.404;5.474;2023-08-07T00:49:42;17.10;82.60
45785;DHT22;31489;51.404;5.474;2023-08-07T00:52:08;17.10;82.80
45785;DHT22;31489;51.404;5.474;2023-08-07T00:54:34;17.10;82.70
45785;DHT22;31489;51.404;5.474;2023-08-07T00:57:12;17.10;82.70
45785;DHT22;31489;51.404;5.474;2023-08-07T00:59:40;17.10;82.50
45785;DHT22;31489;51.404;5.474;2023-08-07T01:02:07;17.10;83.00
45785;DHT22;31489;51.404;5.474;2023-08-07T01:04:33;17.10;82.80
45785;DHT22;31489;51.404;5.474;2023-08-07T01:06:58;17.10;82.70
45785;DHT22;31489;51.404;5.474;2023-08-07T01:09:26;17.20;82.50
45785;DHT22;31489;51.404;5.474;2023-08-07T01:14:40;17.20;82.10
45785;DHT22;31489;51.404;5.474;2023-08-07T01:17:14;17.20;82.30
45785;DHT22;31489;51.404;5.474;2023-08-07T01:19:41;17.20;81.90
45785;DHT22;31489;51.404;5.474;2023-08-07T01:22:11;17.20;82.00
45785;DHT22;31489;51.404;5.474;2023-08-07T01:24:40;17.20;81.80
45785;DHT22;31489;51.404;5.474;2023-08-07T01:35:29;17.20;80.80
45785;DHT22;31489;51.404;5.474;2023-08-07T01:37:56;17.20;81.10
45785;DHT22;31489;51.404;5.474;2023-08-07T01:40:23;17.20;80.80
45785;DHT22;31489;51.404;5.474;2023-08-07T01:42:49;17.20;81.00
45785;DHT22;31489;51.404;5.474;2023-08-07T01:45:23;17.20;80.90
45785;DHT22;31489;51.404;5.474;2023-08-07T01:47:49;17.20;80.80
45785;DHT22;31489;51.404;5.474;2023-08-07T01:50:15;17.20;80.80
45785;DHT22;31489;51.404;5.474;2023-08-07T01:52:40;17.20;80.70
45785;DHT22;31489;51.404;5.474;2023-08-07T01:55:06;17.20;80.60
45785;DHT22;31489;51.404;5.474;2023-08-07T01:57:32;17.20;80.70
45785;DHT22;31489;51.404;5.474;2023-08-07T01:59:58;17.20;80.90
45785;DHT22;31489;51.404;5.474;2023-08-07T02:02:24;17.20;81.10
45785;DHT22;31489;51.404;5.474;2023-08-07T02:04:50;17.10;81.40
45785;DHT22;31489;51.404;5.474;2023-08-07T02:07:15;17.10;81.60
45785;DHT22;31489;51.404;5.474;2023-08-07T02:09:41;17.10;81.90
45785;DHT22;31489;51.404;5.474;2023-08-07T02:12:07;17.00;81.90
45785;DHT22;31489;51.404;5.474;2023-08-07T02:14:33;17.00;82.10
45785;DHT22;31489;51.404;5.474;2023-08-07T02:16:59;17.00;82.20
45785;DHT22;31489;51.404;5.474;2023-08-07T02:19:24;16.90;82.50
45785;DHT22;31489;51.404;5.474;2023-08-07T02:21:50;16.90;82.50
45785;DHT22;31489;51.404;5.474;2023-08-07T02:24:16;16.90;82.60
45785;DHT22;31489;51.404;5.474;2023-08-07T02:26:43;16.90;82.80
45785;DHT22;31489;51.404;5.474;2023-08-07T02:29:09;16.90;82.80
45785;DHT22;31489;51.404;5.474;2023-08-07T02:31:35;16.80;82.90
45785;DHT22;31489;51.404;5.474;2023-08-07T02:34:00;16.80;83.00
45785;DHT22;31489;51.404;5.474;2023-08-07T02:36:26;16.80;83.00
45785;DHT22;31489;51.404;5.474;2023-08-07T02:38:52;16.80;83.10
45785;DHT22;31489;51.404;5.474;2023-08-07T02:41:17;16.90;83.30
45785;DHT22;31489;51.404;5.474;2023-08-07T02:43:43;16.80;83.40
45785;DHT22;31489;51.404;5.474;2023-08-07T02:46:09;16.80;83.40
45785;DHT22;31489;51.404;5.474;2023-08-07T02:48:34;16.80;83.60
45785;DHT22;31489;51.404;5.474;2023-08-07T02:51:00;16.90;83.60
45785;DHT22;31489;51.404;5.474;2023-08-07T02:53:26;16.90;83.60
45785;DHT22;31489;51.404;5.474;2023-08-07T02:55:51;16.90;83.60
45785;DHT22;31489;51.404;5.474;2023-08-07T02:58:17;16.90;83.60
45785;DHT22;31489;51.404;5.474;2023-08-07T03:00:43;16.90;83.60
45785;DHT22;31489;51.404;5.474;2023-08-07T03:03:09;16.90;83.70
45785;DHT22;31489;51.404;5.474;2023-08-07T03:05:34;16.90;83.70
45785;DHT22;31489;51.404;5.474;2023-08-07T03:08:00;17.00;83.60
45785;DHT22;31489;51.404;5.474;2023-08-07T03:10:26;17.00;83.50
45785;DHT22;31489;51.404;5.474;2023-08-07T03:12:52;17.00;83.40
45785;DHT22;31489;51.404;5.474;2023-08-07T03:15:17;17.00;83.50
45785;DHT22;31489;51.404;5.474;2023-08-07T03:17:43;17.00;83.30
45785;DHT22;31489;51.404;5.474;2023-08-07T03:20:09;17.00;83.30
45785;DHT22;31489;51.404;5.474;2023-08-07T03:22:36;17.00;83.20
45785;DHT22;31489;51.404;5.474;2023-08-07T03:25:01;17.00;83.10
45785;DHT22;31489;51.404;5.474;2023-08-07T03:27:28;17.10;83.10
45785;DHT22;31489;51.404;5.474;2023-08-07T03:29:53;17.10;82.90
45785;DHT22;31489;51.404;5.474;2023-08-07T03:32:19;17.00;82.80
45785;DHT22;31489;51.404;5.474;2023-08-07T03:34:45;17.10;82.90
45785;DHT22;31489;51.404;5.474;2023-08-07T03:37:10;17.10;82.80
45785;DHT22;31489;51.404;5.474;2023-08-07T03:39:36;17.10;82.70
45785;DHT22;31489;51.404;5.474;2023-08-07T03:42:02;17.10;82.50
45785;DHT22;31489;51.404;5.474;2023-08-07T03:44:28;17.10;82.60
45785;DHT22;31489;51.404;5.474;2023-08-07T03:46:53;17.10;82.50
45785;DHT22;31489;51.404;5.474;2023-08-07T03:49:21;17.10;82.30
45785;DHT22;31489;51.404;5.474;2023-08-07T03:51:48;17.10;82.30
45785;DHT22;31489;51.404;5.474;2023-08-07T03:54:14;17.10;82.20
45785;DHT22;31489;51.404;5.474;2023-08-07T03:56:40;17.10;82.10
45785;DHT22;31489;51.404;5.474;2023-08-07T03:59:06;17.10;82.10
45785;DHT22;31489;51.404;5.474;2023-08-07T04:01:32;17.10;82.10
45785;DHT22;31489;51.404;5.474;2023-08-07T04:03:58;17.10;81.90
45785;DHT22;31489;51.404;5.474;2023-08-07T04:06:23;17.10;81.90
45785;DHT22;31489;51.404;5.474;2023-08-07T04:08:49;17.10;82.00
45785;DHT22;31489;51.404;5.474;2023-08-07T04:11:15;17.10;82.00
45785;DHT22;31489;51.404;5.474;2023-08-07T04:13:41;17.10;81.90
45785;DHT22;31489;51.404;5.474;2023-08-07T04:16:06;17.10;81.70
45785;DHT22;31489;51.404;5.474;2023-08-07T04:18:33;17.10;81.80
45785;DHT22;31489;51.404;5.474;2023-08-07T04:20:59;17.10;81.80
45785;DHT22;31489;51.404;5.474;2023-08-07T04:23:25;17.10;81.70
45785;DHT22;31489;51.404;5.474;2023-08-07T04:25:52;17.10;81.60
45785;DHT22;31489;51.404;5.474;2023-08-07T04:28:19;17.10;81.60
45785;DHT22;31489;51.404;5.474;2023-08-07T04:30:47;17.10;81.50
45785;DHT22;31489;51.404;5.474;2023-08-07T04:33:14;17.10;81.30
45785;DHT22;31489;51.404;5.474;2023-08-07T04:35:39;17.10;81.30
45785;DHT22;31489;51.404;5.474;2023-08-07T04:38:05;17.10;81.40
45785;DHT22;31489;51.404;5.474;2023-08-07T04:40:31;17.10;81.50
45785;DHT22;31489;51.404;5.474;2023-08-07T04:42:57;17.10;81.40
45785;DHT22;31489;51.404;5.474;2023-08-07T04:45:23;17.10;81.60
45785;DHT22;31489;51.404;5.474;2023-08-07T04:47:48;17.10;81.60
45785;DHT22;31489;51.404;5.474;2023-08-07T04:50:14;17.00;81.50
45785;DHT22;31489;51.404;5.474;2023-08-07T04:52:39;17.00;81.50
45785;DHT22;31489;51.404;5.474;2023-08-07T04:55:05;17.00;81.70
45785;DHT22;31489;51.404;5.474;2023-08-07T04:57:31;17.00;81.70
45785;DHT22;31489;51.404;5.474;2023-08-07T04:59:57;17.00;81.70
45785;DHT22;31489;51.404;5.474;2023-08-07T05:02:23;17.00;81.70
45785;DHT22;31489;51.404;5.474;2023-08-07T05:04:48;17.00;81.70
45785;DHT22;31489;51.404;5.474;2023-08-07T05:07:14;17.00;81.80
45785;DHT22;31489;51.404;5.474;2023-08-07T05:09:40;17.00;81.80
45785;DHT22;31489;51.404;5.474;2023-08-07T05:12:06;17.00;81.60
45785;DHT22;31489;51.404;5.474;2023-08-07T05:14:32;17.00;81.50
45785;DHT22;31489;51.404;5.474;2023-08-07T05:16:58;17.00;81.40
45785;DHT22;31489;51.404;5.474;2023-08-07T05:19:25;17.00;81.50
45785;DHT22;31489;51.404;5.474;2023-08-07T05:21:51;17.00;81.50
45785;DHT22;31489;51.404;5.474;2023-08-07T05:24:17;17.00;81.30
45785;DHT22;31489;51.404;5.474;2023-08-07T05:26:43;17.00;81.20
45785;DHT22;31489;51.404;5.474;2023-08-07T05:29:08;17.00;81.00
45785;DHT22;31489;51.404;5.474;2023-08-07T05:31:34;17.00;81.00
45785;DHT22;31489;51.404;5.474;2023-08-07T05:34:00;17.00;80.90
45785;DHT22;31489;51.404;5.474;2023-08-07T05:36:26;17.00;81.00
45785;DHT22;31489;51.404;5.474;2023-08-07T05:38:51;17.00;81.20
45785;DHT22;31489;51.404;5.474;2023-08-07T05:41:17;17.00;81.30
45785;DHT22;31489;51.404;5.474;2023-08-07T05:43:43;17.00;81.40
45785;DHT22;31489;51.404;5.474;2023-08-07T05:46:09;17.00;81.50
45785;DHT22;31489;51.404;5.474;2023-08-07T05:48:34;17.00;82.10
45785;DHT22;31489;51.404;5.474;2023-08-07T05:51:01;17.10;81.50
45785;DHT22;31489;51.404;5.474;2023-08-07T05:53:26;17.10;81.30
45785;DHT22;31489;51.404;5.474;2023-08-07T05:55:52;17.10;81.30
45785;DHT22;31489;51.404;5.474;2023-08-07T05:58:18;17.10;81.20
45785;DHT22;31489;51.404;5.474;2023-08-07T06:00:44;17.10;81.10
45785;DHT22;31489;51.404;5.474;2023-08-07T06:03:10;17.10;81.20
45785;DHT22;31489;51.404;5.474;2023-08-07T06:05:35;17.10;81.10
45785;DHT22;31489;51.404;5.474;2023-08-07T06:08:01;17.10;81.30
45785;DHT22;31489;51.404;5.474;2023-08-07T06:10:27;17.10;81.10
45785;DHT22;31489;51.404;5.474;2023-08-07T06:12:53;17.20;81.10
45785;DHT22;31489;51.404;5.474;2023-08-07T06:15:19;17.20;81.00
45785;DHT22;31489;51.404;5.474;2023-08-07T06:17:45;17.20;81.10
45785;DHT22;31489;51.404;5.474;2023-08-07T06:20:11;17.20;81.10
45785;DHT22;31489;51.404;5.474;2023-08-07T06:22:40;17.20;81.00
45785;DHT22;31489;51.404;5.474;2023-08-07T06:25:06;17.20;81.10
45785;DHT22;31489;51.404;5.474;2023-08-07T06:27:32;17.30;81.00
45785;DHT22;31489;51.404;5.474;2023-08-07T06:29:58;17.30;80.90
45785;DHT22;31489;51.404;5.474;2023-08-07T06:32:25;17.30;80.80
45785;DHT22;31489;51.404;5.474;2023-08-07T06:34:52;17.40;80.70
45785;DHT22;31489;51.404;5.474;2023-08-07T06:37:18;17.30;80.40
45785;DHT22;31489;51.404;5.474;2023-08-07T06:39:43;17.40;80.40
45785;DHT22;31489;51.404;5.474;2023-08-07T06:42:09;17.40;80.40
45785;DHT22;31489;51.404;5.474;2023-08-07T06:44:35;17.40;80.30
45785;DHT22;31489;51.404;5.474;2023-08-07T06:47:01;17.40;80.40
45785;DHT22;31489;51.404;5.474;2023-08-07T06:49:27;17.50;80.20
45785;DHT22;31489;51.404;5.474;2023-08-07T06:51:52;17.50;80.20
45785;DHT22;31489;51.404;5.474;2023-08-07T06:54:21;17.50;80.30
45785;DHT22;31489;51.404;5.474;2023-08-07T06:56:46;17.50;79.90
45785;DHT22;31489;51.404;5.474;2023-08-07T06:59:12;17.60;80.00
45785;DHT22;31489;51.404;5.474;2023-08-07T07:01:38;17.60;79.90
45785;DHT22;31489;51.404;5.474;2023-08-07T07:04:04;17.70;79.80
45785;DHT22;31489;51.404;5.474;2023-08-07T07:06:29;17.70;79.90
45785;DHT22;31489;51.404;5.474;2023-08-07T07:08:55;17.80;79.80
45785;DHT22;31489;51.404;5.474;2023-08-07T07:11:22;17.80;79.60
45785;DHT22;31489;51.404;5.474;2023-08-07T07:13:50;17.80;79.90
45785;DHT22;31489;51.404;5.474;2023-08-07T07:16:19;17.90;79.70
45785;DHT22;31489;51.404;5.474;2023-08-07T07:18:48;17.90;78.70
45785;DHT22;31489;51.404;5.474;2023-08-07T07:21:14;18.00;79.20
45785;DHT22;31489;51.404;5.474;2023-08-07T07:23:40;18.00;79.10
45785;DHT22;31489;51.404;5.474;2023-08-07T07:26:06;18.10;79.10
45785;DHT22;31489;51.404;5.474;2023-08-07T07:28:32;18.10;78.70
45785;DHT22;31489;51.404;5.474;2023-08-07T07:30:58;18.20;78.60
45785;DHT22;31489;51.404;5.474;2023-08-07T07:33:26;18.20;78.70
45785;DHT22;31489;51.404;5.474;2023-08-07T07:35:52;18.20;78.00
45785;DHT22;31489;51.404;5.474;2023-08-07T07:38:18;18.20;78.00
45785;DHT22;31489;51.404;5.474;2023-08-07T07:40:43;18.30;77.50
45785;DHT22;31489;51.404;5.474;2023-08-07T07:43:09;18.30;77.40
45785;DHT22;31489;51.404;5.474;2023-08-07T07:45:37;18.40;77.50
45785;DHT22;31489;51.404;5.474;2023-08-07T07:48:03;18.40;76.90
45785;DHT22;31489;51.404;5.474;2023-08-07T07:50:29;18.50;76.70
45785;DHT22;31489;51.404;5.474;2023-08-07T07:52:57;18.50;76.60
45785;DHT22;31489;51.404;5.474;2023-08-07T07:55:24;18.60;76.50
45785;DHT22;31489;51.404;5.474;2023-08-07T07:57:53;18.60;76.50
45785;DHT22;31489;51.404;5.474;2023-08-07T08:00:19;18.60;76.20
45785;DHT22;31489;51.404;5.474;2023-08-07T08:02:45;18.70;76.30
45785;DHT22;31489;51.404;5.474;2023-08-07T08:05:11;18.70;76.00
45785;DHT22;31489;51.404;5.474;2023-08-07T08:07:38;18.70;75.70
45785;DHT22;31489;51.404;5.474;2023-08-07T08:10:06;18.80;76.00
45785;DHT22;31489;51.404;5.474;2023-08-07T08:12:32;18.80;75.20
45785;DHT22;31489;51.404;5.474;2023-08-07T08:14:58;18.80;74.60
45785;DHT22;31489;51.404;5.474;2023-08-07T08:17:26;18.90;75.00
45785;DHT22;31489;51.404;5.474;2023-08-07T08:19:52;18.90;75.50
45785;DHT22;31489;51.404;5.474;2023-08-07T08:22:18;18.90;74.90
45785;DHT22;31489;51.404;5.474;2023-08-07T08:24:44;18.90;74.60
45785;DHT22;31489;51.404;5.474;2023-08-07T08:27:10;19.00;74.10
45785;DHT22;31489;51.404;5.474;2023-08-07T08:29:36;19.00;74.30
45785;DHT22;31489;51.404;5.474;2023-08-07T08:32:01;19.00;73.70
45785;DHT22;31489;51.404;5.474;2023-08-07T08:34:28;19.10;73.40
45785;DHT22;31489;51.404;5.474;2023-08-07T08:36:54;19.10;73.40
45785;DHT22;31489;51.404;5.474;2023-08-07T08:39:20;19.20;73.40
45785;DHT22;31489;51.404;5.474;2023-08-07T08:41:46;19.20;73.00
45785;DHT22;31489;51.404;5.474;2023-08-07T08:44:17;19.20;73.20
45785;DHT22;31489;51.404;5.474;2023-08-07T08:46:47;19.30;71.50
45785;DHT22;31489;51.404;5.474;2023-08-07T08:49:16;19.40;71.50
45785;DHT22;31489;51.404;5.474;2023-08-07T08:51:45;19.50;70.40
45785;DHT22;31489;51.404;5.474;2023-08-07T08:54:12;19.50;71.00
45785;DHT22;31489;51.404;5.474;2023-08-07T08:56:39;19.50;70.60
45785;DHT22;31489;51.404;5.474;2023-08-07T08:59:05;19.60;70.80
45785;DHT22;31489;51.404;5.474;2023-08-07T09:01:31;19.70;70.70
45785;DHT22;31489;51.404;5.474;2023-08-07T09:04:00;19.70;69.60
45785;DHT22;31489;51.404;5.474;2023-08-07T09:06:31;19.70;67.00
45785;DHT22;31489;51.404;5.474;2023-08-07T09:08:58;19.80;68.00
45785;DHT22;31489;51.404;5.474;2023-08-07T09:11:28;19.80;67.50
45785;DHT22;31489;51.404;5.474;2023-08-07T09:13:55;19.90;67.90
45785;DHT22;31489;51.404;5.474;2023-08-07T09:16:22;19.90;67.50
45785;DHT22;31489;51.404;5.474;2023-08-07T09:18:52;20.00;67.90
45785;DHT22;31489;51.404;5.474;2023-08-07T09:21:20;20.00;66.50
45785;DHT22;31489;51.404;5.474;2023-08-07T09:23:46;20.10;67.40
45785;DHT22;31489;51.404;5.474;2023-08-07T09:26:11;20.10;67.20
45785;DHT22;31489;51.404;5.474;2023-08-07T09:28:37;20.20;66.80
45785;DHT22;31489;51.404;5.474;2023-08-07T09:31:07;20.20;66.60
45785;DHT22;31489;51.404;5.474;2023-08-07T09:33:34;20.30;65.10
45785;DHT22;31489;51.404;5.474;2023-08-07T09:36:03;20.30;65.80
45785;DHT22;31489;51.404;5.474;2023-08-07T09:38:30;20.40;66.10
45785;DHT22;31489;51.404;5.474;2023-08-07T09:40:59;20.40;66.50
45785;DHT22;31489;51.404;5.474;2023-08-07T09:43:25;20.40;66.00
45785;DHT22;31489;51.404;5.474;2023-08-07T09:45:51;20.50;66.70
45785;DHT22;31489;51.404;5.474;2023-08-07T09:48:25;20.60;65.90
45785;DHT22;31489;51.404;5.474;2023-08-07T09:50:53;20.60;64.10
45785;DHT22;31489;51.404;5.474;2023-08-07T09:53:25;20.60;65.10
45785;DHT22;31489;51.404;5.474;2023-08-07T09:55:53;20.70;63.80
45785;DHT22;31489;51.404;5.474;2023-08-07T09:58:20;20.70;64.20
45785;DHT22;31489;51.404;5.474;2023-08-07T10:00:47;20.70;64.70
45785;DHT22;31489;51.404;5.474;2023-08-07T10:03:14;20.70;64.20
45785;DHT22;31489;51.404;5.474;2023-08-07T10:05:43;20.70;63.30
45785;DHT22;31489;51.404;5.474;2023-08-07T10:08:10;20.80;62.70
45785;DHT22;31489;51.404;5.474;2023-08-07T10:10:37;20.70;61.90
45785;DHT22;31489;51.404;5.474;2023-08-07T10:13:04;20.80;61.80
45785;DHT22;31489;51.404;5.474;2023-08-07T10:15:34;20.80;63.30
45785;DHT22;31489;51.404;5.474;2023-08-07T10:18:02;20.80;63.30
45785;DHT22;31489;51.404;5.474;2023-08-07T10:20:29;20.80;63.50
45785;DHT22;31489;51.404;5.474;2023-08-07T10:23:22;20.90;62.70
45785;DHT22;31489;51.404;5.474;2023-08-07T10:25:48;21.00;61.70
45785;DHT22;31489;51.404;5.474;2023-08-07T10:28:17;21.10;62.70
45785;DHT22;31489;51.404;5.474;2023-08-07T10:30:44;21.10;63.50
45785;DHT22;31489;51.404;5.474;2023-08-07T10:33:12;21.20;63.40
45785;DHT22;31489;51.404;5.474;2023-08-07T10:35:48;21.30;63.30
45785;DHT22;31489;51.404;5.474;2023-08-07T10:38:14;21.40;61.70
45785;DHT22;31489;51.404;5.474;2023-08-07T10:41:08;21.50;63.10
45785;DHT22;31489;51.404;5.474;2023-08-07T10:43:41;21.60;62.40
45785;DHT22;31489;51.404;5.474;2023-08-07T10:46:15;21.70;59.80
45785;DHT22;31489;51.404;5.474;2023-08-07T10:48:54;21.80;58.90
45785;DHT22;31489;51.404;5.474;2023-08-07T10:51:20;21.80;59.70
45785;DHT22;31489;51.404;5.474;2023-08-07T10:53:49;21.90;61.40
45785;DHT22;31489;51.404;5.474;2023-08-07T10:56:31;22.00;62.00
45785;DHT22;31489;51.404;5.474;2023-08-07T10:58:57;22.20;57.80
45785;DHT22;31489;51.404;5.474;2023-08-07T11:04:11;22.70;57.90
45785;DHT22;31489;51.404;5.474;2023-08-07T11:06:38;23.00;60.90
45785;DHT22;31489;51.404;5.474;2023-08-07T11:09:08;23.40;61.80
45785;DHT22;31489;51.404;5.474;2023-08-07T11:11:46;23.70;59.60
45785;DHT22;31489;51.404;5.474;2023-08-07T11:16:39;24.40;60.50
45785;DHT22;31489;51.404;5.474;2023-08-07T11:19:05;24.70;58.90
45785;DHT22;31489;51.404;5.474;2023-08-07T11:21:32;25.10;57.10
45785;DHT22;31489;51.404;5.474;2023-08-07T11:23:58;25.30;57.80
45785;DHT22;31489;51.404;5.474;2023-08-07T11:26:29;25.40;55.70
45785;DHT22;31489;51.404;5.474;2023-08-07T11:28:55;25.60;53.50
45785;DHT22;31489;51.404;5.474;2023-08-07T11:31:22;25.70;55.00
45785;DHT22;31489;51.404;5.474;2023-08-07T11:33:54;25.80;54.80
45785;DHT22;31489;51.404;5.474;2023-08-07T11:36:21;25.90;53.90
45785;DHT22;31489;51.404;5.474;2023-08-07T11:38:47;26.00;55.40
45785;DHT22;31489;51.404;5.474;2023-08-07T11:41:16;26.00;53.80
45785;DHT22;31489;51.404;5.474;2023-08-07T11:43:42;25.90;53.40
45785;DHT22;31489;51.404;5.474;2023-08-07T11:46:10;25.90;54.00
45785;DHT22;31489;51.404;5.474;2023-08-07T11:48:37;25.90;53.80
45785;DHT22;31489;51.404;5.474;2023-08-07T11:51:06;25.90;54.10
45785;DHT22;31489;51.404;5.474;2023-08-07T11:53:34;25.90;54.40
45785;DHT22;31489;51.404;5.474;2023-08-07T11:56:13;25.90;55.10
45785;DHT22;31489;51.404;5.474;2023-08-07T11:58:45;25.90;53.20
45785;DHT22;31489;51.404;5.474;2023-08-07T12:01:18;25.90;53.40
45785;DHT22;31489;51.404;5.474;2023-08-07T12:04:09;25.90;53.00
45785;DHT22;31489;51.404;5.474;2023-08-07T12:06:36;25.70;53.00
45785;DHT22;31489;51.404;5.474;2023-08-07T12:09:05;25.50;52.90
45785;DHT22;31489;51.404;5.474;2023-08-07T12:11:32;25.20;52.50
45785;DHT22;31489;51.404;5.474;2023-08-07T12:14:00;25.00;52.70
45785;DHT22;31489;51.404;5.474;2023-08-07T12:16:33;24.70;52.70
45785;DHT22;31489;51.404;5.474;2023-08-07T12:18:59;24.30;54.00
45785;DHT22;31489;51.404;5.474;2023-08-07T12:21:27;24.00;55.20
45785;DHT22;31489;51.404;5.474;2023-08-07T12:23:57;23.70;55.80
45785;DHT22;31489;51.404;5.474;2023-08-07T12:26:23;23.50;56.80
45785;DHT22;31489;51.404;5.474;2023-08-07T12:28:49;23.30;58.70
45785;DHT22;31489;51.404;5.474;2023-08-07T12:31:15;23.00;59.20
45785;DHT22;31489;51.404;5.474;2023-08-07T12:33:43;22.90;59.60
45785;DHT22;31489;51.404;5.474;2023-08-07T12:36:11;22.80;60.30
45785;DHT22;31489;51.404;5.474;2023-08-07T12:38:40;22.60;60.60
45785;DHT22;31489;51.404;5.474;2023-08-07T12:41:06;22.60;61.90
45785;DHT22;31489;51.404;5.474;2023-08-07T12:43:32;22.60;62.40
45785;DHT22;31489;51.404;5.474;2023-08-07T12:45:59;22.80;62.60
45785;DHT22;31489;51.404;5.474;2023-08-07T12:48:25;22.90;62.20
45785;DHT22;31489;51.404;5.474;2023-08-07T12:50:52;23.20;62.70
45785;DHT22;31489;51.404;5.474;2023-08-07T12:53:18;23.40;61.40
45785;DHT22;31489;51.404;5.474;2023-08-07T12:55:46;23.70;60.30
45785;DHT22;31489;51.404;5.474;2023-08-07T12:58:12;23.90;59.70
45785;DHT22;31489;51.404;5.474;2023-08-07T13:00:38;24.10;59.20
45785;DHT22;31489;51.404;5.474;2023-08-07T13:03:04;24.20;59.60
45785;DHT22;31489;51.404;5.474;2023-08-07T13:05:29;24.10;60.90
45785;DHT22;31489;51.404;5.474;2023-08-07T13:07:56;24.00;60.90
45785;DHT22;31489;51.404;5.474;2023-08-07T13:10:24;23.90;60.30
45785;DHT22;31489;51.404;5.474;2023-08-07T13:12:50;23.80;59.80
45785;DHT22;31489;51.404;5.474;2023-08-07T13:15:17;23.70;60.90
45785;DHT22;31489;51.404;5.474;2023-08-07T13:17:43;23.50;61.10
45785;DHT22;31489;51.404;5.474;2023-08-07T13:20:10;23.30;63.10
45785;DHT22;31489;51.404;5.474;2023-08-07T13:22:38;23.20;64.00
45785;DHT22;31489;51.404;5.474;2023-08-07T13:25:05;23.00;65.20
45785;DHT22;31489;51.404;5.474;2023-08-07T13:27:34;22.90;64.60
45785;DHT22;31489;51.404;5.474;2023-08-07T13:30:00;22.90;64.70
45785;DHT22;31489;51.404;5.474;2023-08-07T13:32:27;22.80;64.80
45785;DHT22;31489;51.404;5.474;2023-08-07T13:34:53;22.70;64.50
45785;DHT22;31489;51.404;5.474;2023-08-07T13:37:19;22.60;64.50
45785;DHT22;31489;51.404;5.474;2023-08-07T13:39:45;22.60;64.50
45785;DHT22;31489;51.404;5.474;2023-08-07T13:42:10;22.50;63.70
45785;DHT22;31489;51.404;5.474;2023-08-07T13:44:37;22.40;64.70
45785;DHT22;31489;51.404;5.474;2023-08-07T13:47:04;22.30;65.00
45785;DHT22;31489;51.404;5.474;2023-08-07T13:49:30;22.20;64.70
45785;DHT22;31489;51.404;5.474;2023-08-07T13:51:58;22.20;64.90
45785;DHT22;31489;51.404;5.474;2023-08-07T13:54:24;22.10;65.10
45785;DHT22;31489;51.404;5.474;2023-08-07T13:56:50;22.10;65.90
45785;DHT22;31489;51.404;5.474;2023-08-07T13:59:16;22.20;66.30
45785;DHT22;31489;51.404;5.474;2023-08-07T14:01:48;22.30;65.50
45785;DHT22;31489;51.404;5.474;2023-08-07T14:04:13;22.50;65.60
45785;DHT22;31489;51.404;5.474;2023-08-07T14:06:40;22.60;65.20
45785;DHT22;31489;51.404;5.474;2023-08-07T14:09:08;22.90;64.90
45785;DHT22;31489;51.404;5.474;2023-08-07T14:11:35;23.10;64.30
45785;DHT22;31489;51.404;5.474;2023-08-07T14:14:00;23.40;63.10
45785;DHT22;31489;51.404;5.474;2023-08-07T14:16:26;23.60;61.60
45785;DHT22;31489;51.404;5.474;2023-08-07T14:18:52;23.90;60.70
45785;DHT22;31489;51.404;5.474;2023-08-07T14:21:18;24.10;60.60
45785;DHT22;31489;51.404;5.474;2023-08-07T14:23:44;24.30;60.20
45785;DHT22;31489;51.404;5.474;2023-08-07T14:26:11;24.50;59.20
45785;DHT22;31489;51.404;5.474;2023-08-07T14:28:37;24.60;57.50
45785;DHT22;31489;51.404;5.474;2023-08-07T14:31:06;24.70;57.00
45785;DHT22;31489;51.404;5.474;2023-08-07T14:33:32;24.70;55.80
45785;DHT22;31489;51.404;5.474;2023-08-07T14:35:58;24.70;57.00
45785;DHT22;31489;51.404;5.474;2023-08-07T14:38:25;24.60;56.40
45785;DHT22;31489;51.404;5.474;2023-08-07T14:40:51;24.60;56.10
45785;DHT22;31489;51.404;5.474;2023-08-07T14:43:16;24.50;56.80
45785;DHT22;31489;51.404;5.474;2023-08-07T14:45:42;24.40;57.10
45785;DHT22;31489;51.404;5.474;2023-08-07T14:48:08;24.30;56.90
45785;DHT22;31489;51.404;5.474;2023-08-07T14:50:33;24.30;56.50
45785;DHT22;31489;51.404;5.474;2023-08-07T14:52:59;24.30;57.00
45785;DHT22;31489;51.404;5.474;2023-08-07T14:55:25;24.30;56.50
45785;DHT22;31489;51.404;5.474;2023-08-07T14:57:51;24.30;56.40
45785;DHT22;31489;51.404;5.474;2023-08-07T15:00:17;24.40;56.50
45785;DHT22;31489;51.404;5.474;2023-08-07T15:02:43;24.40;56.50
45785;DHT22;31489;51.404;5.474;2023-08-07T15:05:09;24.40;56.60
45785;DHT22;31489;51.404;5.474;2023-08-07T15:07:35;24.50;56.80
45785;DHT22;31489;51.404;5.474;2023-08-07T15:10:00;24.50;55.70
45785;DHT22;31489;51.404;5.474;2023-08-07T15:12:26;24.60;56.10
45785;DHT22;31489;51.404;5.474;2023-08-07T15:14:52;24.60;55.80
45785;DHT22;31489;51.404;5.474;2023-08-07T15:17:18;24.70;56.20
45785;DHT22;31489;51.404;5.474;2023-08-07T15:19:43;24.70;56.00
45785;DHT22;31489;51.404;5.474;2023-08-07T15:22:09;24.80;55.70
45785;DHT22;31489;51.404;5.474;2023-08-07T15:24:35;24.80;57.00
45785;DHT22;31489;51.404;5.474;2023-08-07T15:27:00;24.90;56.00
45785;DHT22;31489;51.404;5.474;2023-08-07T15:29:26;24.90;56.30
45785;DHT22;31489;51.404;5.474;2023-08-07T15:31:52;25.00;55.00
45785;DHT22;31489;51.404;5.474;2023-08-07T15:34:18;24.90;54.90
45785;DHT22;31489;51.404;5.474;2023-08-07T15:36:43;24.90;55.30
45785;DHT22;31489;51.404;5.474;2023-08-07T15:39:09;24.90;54.90
45785;DHT22;31489;51.404;5.474;2023-08-07T15:41:35;24.90;54.10
45785;DHT22;31489;51.404;5.474;2023-08-07T15:44:01;24.90;54.40